^^
Station Historical Data
Daily Summary for October 12, 2017 Units:  English    Metric   Both
« Previous Day
Next Day »
Daily Weekly Monthly Yearly Custom
  High: Low: Average:
Temperature: 65.1 °F 51.3 °F 57.5 °F
Dew Point: 57.5 °F 43.6 °F 50.1 °F
Humidity: 93% 53% 78%
Wind Speed: 3.0mph 0.0mph 0.6mph
Wind Gust: 16.0mph - -
Wind- - SW
Pressure: 30.42 in 30.19 in -
Precipitation: 0.12 in    
Historical Graphs
 
 
Tabular Data for October 12, 2017
Time Temperature Dew Point Pressure Wind Wind Speed Wind Gust Humidity Rainfall Rate (Hourly) Conditions
00:00 62.4 °F 55.8 °F 30.19 in Calm   7.0 mph 79% 0.00 in RA
00:15 61.4 °F 56.5 °F 30.19 in Calm   3.0 mph 84% 0.01 in -DZ
00:30 60.7 °F 56.8 °F 30.20 in Calm   2.0 mph 87% 0.00 in -DZ
00:45 60.5 °F 57.5 °F 30.20 in Calm     90% 0.02 in -DZ
01:00 60.1 °F 57.5 °F 30.21 in Calm   7.0 mph 91% 0.00 in -DZ
01:15 59.7 °F 57.4 °F 30.22 in Calm   3.0 mph 92% 0.00 in -RA
01:30 59.4 °F 57.1 °F 30.23 in NW 1.0 mph 3.0 mph 92% 0.02 in -RA
01:45 58.6 °F 56.3 °F 30.23 in Calm   5.0 mph 92% 0.01 in -RA
02:00 58.0 °F 56.0 °F 30.23 in Calm   3.0 mph 93% 0.00 in -RA
02:15 57.2 °F 54.9 °F 30.22 in ENE 1.0 mph 8.0 mph 92% 0.01 in -RA
02:30 56.5 °F 54.3 °F 30.21 in NNE 2.0 mph 8.0 mph 92% 0.00 in -RA
02:45 56.0 °F 53.7 °F 30.21 in Calm   6.0 mph 92% 0.01 in -RA
03:00 55.7 °F 53.4 °F 30.22 in Calm   9.0 mph 92% 0.00 in -RA
03:15 55.6 °F 53.3 °F 30.23 in WSW 1.0 mph 6.0 mph 92% 0.00 in -RA
03:30 55.8 °F 53.5 °F 30.25 in Calm   7.0 mph 92% 0.01 in -RA
03:45 55.7 °F 53.4 °F 30.23 in Calm   6.0 mph 92% 0.00 in -RA
04:00 55.5 °F 52.9 °F 30.25 in NW 1.0 mph 8.0 mph 91% 0.00 in -RA
04:15 55.5 °F 52.9 °F 30.26 in SW 1.0 mph 10.0 mph 91% 0.00 in -RA
04:30 55.3 °F 52.4 °F 30.26 in Calm   7.0 mph 90% 0.00 in -RA
04:45 55.5 °F 52.3 °F 30.26 in NNW 1.0 mph 8.0 mph 89% 0.00 in -RA
05:00 55.6 °F 52.4 °F 30.26 in Calm   6.0 mph 89% 0.00 in -RA
05:15 55.4 °F 52.2 °F 30.27 in Calm   4.0 mph 89% 0.01 in -DZ
05:30 55.1 °F 52.2 °F 30.27 in Calm   4.0 mph 90% 0.00 in -DZ
05:45 54.8 °F 51.9 °F 30.28 in WNW 1.0 mph 4.0 mph 90% 0.00 in -DZ
06:00 54.8 °F 51.6 °F 30.28 in Calm   8.0 mph 89% 0.00 in -DZ
06:15 54.8 °F 51.6 °F 30.30 in Calm   9.0 mph 89% 0.00 in BKN
06:30 54.5 °F 51.3 °F 30.30 in NW 1.0 mph 8.0 mph 89% 0.00 in BKN
07:00 53.7 °F 50.8 °F 30.30 in Calm   6.0 mph 90% 0.00 in BKN
07:15 53.5 °F 50.9 °F 30.30 in Calm   4.0 mph 91% 0.01 in -RA
07:30 53.1 °F 50.5 °F 30.32 in Calm   5.0 mph 91% 0.00 in -RA
07:45 52.9 °F 49.7 °F 30.33 in West 1.0 mph 6.0 mph 89% 0.00 in -RA
08:00 53.0 °F 49.5 °F 30.33 in NW 1.0 mph 5.0 mph 88% 0.00 in -RA
08:15 53.2 °F 49.4 °F 30.34 in North 1.0 mph 7.0 mph 87% 0.00 in BKN
08:30 53.5 °F 49.5 °F 30.35 in Calm   4.0 mph 86% 0.00 in BKN
08:45 53.8 °F 50.0 °F 30.35 in NE 1.0 mph 5.0 mph 87% 0.00 in BKN
09:00 53.9 °F 49.8 °F 30.36 in Calm   7.0 mph 86% 0.00 in BKN
09:15 54.2 °F 49.8 °F 30.36 in Calm   6.0 mph 85% 0.00 in BKN
09:30 54.7 °F 49.9 °F 30.36 in NNW 1.0 mph 6.0 mph 84% 0.00 in BKN
09:45 55.1 °F 50.0 °F 30.36 in Calm   7.0 mph 83% 0.00 in BKN
10:00 55.5 °F 49.7 °F 30.37 in WSW 1.0 mph 10.0 mph 81% 0.00 in BKN
10:15 56.5 °F 50.1 °F 30.38 in Calm   9.0 mph 79% 0.00 in BKN
10:45 57.3 °F 49.8 °F 30.38 in North 2.0 mph 8.0 mph 76% 0.00 in BKN
11:00 58.4 °F 50.5 °F 30.38 in North 3.0 mph 5.0 mph 75% 0.00 in BKN
11:30 58.8 °F 50.5 °F 30.38 in Calm   3.0 mph 74% 0.00 in BKN
11:45 58.5 °F 49.9 °F 30.39 in NW 1.0 mph 7.0 mph 73% 0.00 in BKN
12:00 58.6 °F 49.6 °F 30.39 in West 1.0 mph 4.0 mph 72% 0.00 in BKN
12:15 59.2 °F 49.4 °F 30.38 in NW 2.0 mph 8.0 mph 70% 0.00 in BKN
12:30 60.2 °F 50.0 °F 30.38 in NW 2.0 mph 4.0 mph 69% 0.00 in BKN
12:45 61.1 °F 49.7 °F 30.37 in NNE 3.0 mph 7.0 mph 66% 0.00 in BKN
13:00 61.3 °F 49.4 °F 30.37 in North 2.0 mph 6.0 mph 65% 0.00 in BKN
13:15 61.5 °F 49.2 °F 30.36 in North 3.0 mph 10.0 mph 64% 0.00 in SCT
13:30 61.0 °F 49.2 °F 30.36 in NNW 1.0 mph 9.0 mph 65% 0.00 in SCT
13:45 62.1 °F 48.9 °F 30.35 in NNW 3.0 mph 8.0 mph 62% 0.00 in SCT
14:00 62.8 °F 48.7 °F 30.35 in South 1.0 mph 16.0 mph 60% 0.00 in SCT
14:15 62.6 °F 48.5 °F 30.35 in NNW 1.0 mph 8.0 mph 60% 0.00 in CLR
14:30 63.5 °F 48.4 °F 30.35 in NNW 2.0 mph 8.0 mph 58% 0.00 in CLR
14:45 63.4 °F 47.4 °F 30.35 in North 2.0 mph 6.0 mph 56% 0.00 in CLR
15:00 64.1 °F 47.6 °F 30.34 in NW 2.0 mph 7.0 mph 55% 0.00 in CLR
15:15 63.7 °F 48.2 °F 30.34 in Calm   7.0 mph 57% 0.00 in FEW
15:30 63.8 °F 47.8 °F 30.34 in North 1.0 mph 6.0 mph 56% 0.00 in FEW
15:45 64.7 °F 48.6 °F 30.34 in NW 1.0 mph 8.0 mph 56% 0.00 in FEW
16:00 64.7 °F 48.2 °F 30.34 in WNW 1.0 mph 9.0 mph 55% 0.00 in FEW
16:15 65.1 °F 47.5 °F 30.34 in ENE 1.0 mph 7.0 mph 53% 0.00 in FEW
16:30 64.4 °F 47.9 °F 30.34 in NW 1.0 mph 6.0 mph 55% 0.00 in FEW
16:45 63.2 °F 49.0 °F 30.35 in Calm   4.0 mph 60% 0.00 in FEW
17:00 62.5 °F 49.3 °F 30.35 in SSW 1.0 mph 4.0 mph 62% 0.00 in FEW
17:15 62.8 °F 50.0 °F 30.35 in Calm   2.0 mph 63% 0.00 in FEW
17:30 63.2 °F 50.4 °F 30.35 in Calm   3.0 mph 63% 0.00 in FEW
17:45 62.9 °F 49.7 °F 30.35 in Calm   2.0 mph 62% 0.00 in FEW
18:00 61.4 °F 49.1 °F 30.36 in Calm   1.0 mph 64% 0.00 in FEW
18:15 60.1 °F 48.7 °F 30.36 in Calm   3.0 mph 66% 0.00 in FEW
18:30 58.7 °F 48.9 °F 30.37 in Calm     70% 0.00 in FEW
18:45 57.4 °F 48.8 °F 30.37 in Calm     73% 0.00 in FEW
19:00 56.3 °F 48.1 °F 30.37 in Calm     74% 0.00 in FEW
19:15 55.5 °F 48.0 °F 30.38 in Calm     76% 0.00 in FEW
19:30 55.1 °F 47.7 °F 30.38 in Calm     76% 0.00 in FEW
19:45 55.1 °F 48.0 °F 30.39 in Calm     77% 0.00 in FEW
20:15 54.2 °F 47.8 °F 30.39 in Calm     79% 0.00 in FEW
20:30 53.7 °F 47.7 °F 30.40 in Calm     80% 0.00 in FEW
20:45 53.6 °F 47.9 °F 30.41 in Calm     81% 0.00 in FEW
21:00 53.5 °F 48.2 °F 30.41 in Calm     82% 0.00 in FEW
21:15 53.5 °F 48.5 °F 30.41 in Calm     83% 0.00 in FEW
21:30 53.0 °F 48.0 °F 30.41 in Calm     83% 0.00 in FEW
21:45 53.1 °F 46.1 °F 30.42 in Calm   2.0 mph 77% 0.00 in FEW
22:00 53.1 °F 45.1 °F 30.42 in Calm   3.0 mph 74% 0.00 in FEW
22:15 53.0 °F 44.5 °F 30.42 in Calm   6.0 mph 73% 0.00 in CLR
22:30 52.9 °F 44.5 °F 30.41 in Calm   2.0 mph 73% 0.00 in CLR
22:45 52.9 °F 44.1 °F 30.41 in Calm   4.0 mph 72% 0.00 in CLR
23:00 52.6 °F 44.2 °F 30.41 in Calm   7.0 mph 73% 0.00 in CLR
23:15 52.2 °F 44.2 °F 30.41 in WSW 1.0 mph 4.0 mph 74% 0.00 in CLR
23:30 51.7 °F 43.7 °F 30.42 in Calm   5.0 mph 74% 0.00 in CLR
23:45 51.3 °F 43.6 °F 30.42 in Calm   4.0 mph 75% 0.00 in CLR
TarryTown NY Weather
Compliments of Weather Underground - 1.5 mb